Time;durP1;ratioP1;P1;durP2;ratioP2;P2;SDS_P1;SDS_P2;PMS_P1;PMS_P2;Temp;Humidity;BMP_temperature;BMP_pressure;BME280_temperature;BME280_humidity;BME280_pressure;Samples;Min_cycle;Max_cycle;Signal;HPM_P1;HPM_P2
2021/06/27 00:01:25;;;;;;;10.00;6.20;;;;;;;24.15;55.93;100252.73;1769759;80;21621;-89
2021/06/27 00:03:52;;;;;;;9.75;6.58;;;;;;;23.86;57.00;100257.34;1764786;80;21067;-89
2021/06/27 00:06:18;;;;;;;8.88;6.42;;;;;;;23.92;56.72;100256.38;1767200;80;21048;-89
2021/06/27 00:08:44;;;;;;;9.50;6.30;;;;;;;23.95;56.70;100258.59;1767071;78;21128;-89
2021/06/27 00:11:12;;;;;;;11.33;6.33;;;;;;;23.93;56.75;100261.26;1775203;77;20988;-88
2021/06/27 00:13:39;;;;;;;9.45;6.42;;;;;;;23.90;56.99;100258.51;1757638;80;21146;-90
2021/06/27 00:16:09;;;;;;;10.32;6.15;;;;;;;23.95;56.84;100262.63;1770970;79;20948;-89
2021/06/27 00:18:34;;;;;;;9.80;6.35;;;;;;;23.96;56.83;100260.23;1772060;79;20984;-88
2021/06/27 00:21:06;;;;;;;8.48;6.80;;;;;;;23.92;56.83;100260.42;1766821;79;20974;-89
2021/06/27 00:23:35;;;;;;;8.68;5.97;;;;;;;23.81;57.19;100260.73;1755281;79;21737;-90
2021/06/27 00:26:01;;;;;;;9.78;6.28;;;;;;;23.71;57.15;100262.42;1767277;79;21542;-88
2021/06/27 00:28:26;;;;;;;10.60;6.17;;;;;;;23.30;58.73;100263.77;1780520;80;21041;-89
2021/06/27 00:30:53;;;;;;;9.53;6.62;;;;;;;23.07;59.36;100269.98;1773393;79;20947;-89
2021/06/27 00:33:20;;;;;;;8.65;6.17;;;;;;;22.94;59.80;100267.83;1755142;79;21221;-90
2021/06/27 00:35:46;;;;;;;10.32;6.05;;;;;;;22.86;60.13;100268.20;1767282;79;21498;-89
2021/06/27 00:38:12;;;;;;;8.28;5.87;;;;;;;22.71;60.66;100262.45;1777985;79;20967;-89
2021/06/27 00:40:38;;;;;;;9.35;6.58;;;;;;;22.63;61.04;100265.50;1762872;79;21077;-89
2021/06/27 00:43:07;;;;;;;10.03;6.22;;;;;;;22.79;60.92;100264.79;1761636;79;20916;-87
2021/06/27 00:45:32;;;;;;;10.88;6.30;;;;;;;23.05;59.65;100262.68;1771015;78;21534;-86
2021/06/27 00:47:58;;;;;;;9.38;6.35;;;;;;;23.14;59.34;100265.34;1766653;79;21542;-87
2021/06/27 00:50:28;;;;;;;8.58;6.50;;;;;;;23.24;58.93;100268.77;1780482;79;21078;-87
2021/06/27 00:52:54;;;;;;;10.32;6.87;;;;;;;23.14;59.27;100265.88;1760791;79;21036;-87
2021/06/27 00:55:20;;;;;;;8.53;6.62;;;;;;;23.06;59.34;100258.94;1778798;79;20982;-87
2021/06/27 00:57:47;;;;;;;9.40;6.70;;;;;;;22.78;60.28;100260.48;1761558;79;21079;-88
2021/06/27 01:00:17;;;;;;;9.83;6.53;;;;;;;22.78;60.21;100265.86;1748003;79;21084;-87
2021/06/27 01:02:45;;;;;;;11.10;6.78;;;;;;;22.80;60.12;100261.05;1736311;82;21018;-87
2021/06/27 01:05:14;;;;;;;11.53;6.42;;;;;;;22.79;60.19;100263.98;1754207;79;21025;-85
2021/06/27 01:07:40;;;;;;;10.60;6.75;;;;;;;22.63;60.58;100262.81;1771898;79;21156;-86
2021/06/27 01:10:07;;;;;;;9.13;6.40;;;;;;;22.64;60.68;100264.44;1728541;82;21089;-88
2021/06/27 01:12:33;;;;;;;9.23;6.37;;;;;;;22.67;60.43;100260.77;1770573;78;21019;-87
2021/06/27 01:15:00;;;;;;;11.83;6.55;;;;;;;22.41;61.26;100259.34;1785152;78;20972;-88
2021/06/27 01:17:26;;;;;;;9.43;5.70;;;;;;;22.35;61.53;100257.03;1784246;78;21094;-88
2021/06/27 01:19:51;;;;;;;11.60;6.50;;;;;;;22.33;61.21;100256.99;1761494;80;20959;-88
2021/06/27 01:22:17;;;;;;;11.03;6.47;;;;;;;22.21;61.75;100263.65;1765648;78;21088;-86
2021/06/27 01:24:43;;;;;;;10.32;6.33;;;;;;;22.23;61.62;100263.73;1766993;80;20916;-86
2021/06/27 01:27:09;;;;;;;9.95;6.62;;;;;;;22.09;62.33;100277.05;1757398;79;20965;-86
2021/06/27 01:29:34;;;;;;;11.33;6.42;;;;;;;21.93;62.91;100269.12;1772325;79;20833;-87
2021/06/27 01:32:00;;;;;;;9.35;6.97;;;;;;;21.98;62.85;100259.02;1761387;79;20888;-87
2021/06/27 01:34:26;;;;;;;10.00;6.53;;;;;;;21.98;62.80;100257.68;1782766;79;21040;-87
2021/06/27 01:36:52;;;;;;;8.78;6.53;;;;;;;22.11;62.40;100256.16;1769943;79;20947;-87
2021/06/27 01:39:17;;;;;;;8.98;6.80;;;;;;;22.07;62.64;100270.28;1762747;78;20975;-87
2021/06/27 01:41:49;;;;;;;9.55;6.92;;;;;;;21.99;63.00;100263.36;1771024;78;20853;-86
2021/06/27 01:44:15;;;;;;;11.00;7.30;;;;;;;21.88;63.44;100260.39;1783178;78;21160;-86
2021/06/27 01:46:41;;;;;;;12.17;7.70;;;;;;;21.64;64.41;100258.66;1775021;79;21134;-86
2021/06/27 01:49:07;;;;;;;11.00;7.37;;;;;;;21.60;64.57;100262.33;1770545;79;22206;-87
2021/06/27 01:51:33;;;;;;;11.48;7.03;;;;;;;21.53;64.88;100260.77;1763234;79;20906;-86
2021/06/27 01:53:58;;;;;;;12.30;7.05;;;;;;;21.43;65.15;100259.94;1753679;79;22011;-87
2021/06/27 01:56:24;;;;;;;13.55;7.40;;;;;;;21.43;65.18;100260.74;1739363;79;20962;-87
2021/06/27 01:58:51;;;;;;;11.05;7.42;;;;;;;21.46;65.30;100262.17;1780411;80;21024;-86
2021/06/27 02:01:27;;;;;;;11.10;7.63;;;;;;;21.59;64.71;100261.20;1778796;80;20903;-86
2021/06/27 02:03:53;;;;;;;9.70;6.65;;;;;;;21.79;63.94;100264.45;1775840;78;21133;-86
2021/06/27 02:06:23;;;;;;;12.47;7.53;;;;;;;21.78;64.22;100266.86;1778430;78;20998;-86
2021/06/27 02:08:49;;;;;;;9.68;7.40;;;;;;;21.83;63.85;100265.64;1772988;80;21090;-87
2021/06/27 02:11:17;;;;;;;13.38;7.62;;;;;;;21.99;63.53;100257.98;1778213;78;21087;-87
2021/06/27 02:13:43;;;;;;;8.73;6.85;;;;;;;21.97;63.46;100264.09;1756614;79;20946;-87
2021/06/27 02:16:09;;;;;;;10.03;7.28;;;;;;;22.06;62.98;100260.03;1812571;77;20891;-87
2021/06/27 02:18:37;;;;;;;10.05;7.15;;;;;;;22.08;62.85;100258.45;1818496;77;20848;-86
2021/06/27 02:21:08;;;;;;;10.15;7.17;;;;;;;22.14;62.61;100257.03;1813662;77;20972;-87
2021/06/27 02:23:33;;;;;;;9.13;6.55;;;;;;;22.17;62.47;100257.92;1787061;77;21059;-87
2021/06/27 02:25:59;;;;;;;9.88;7.28;;;;;;;22.16;62.32;100257.61;1776392;80;21100;-90
2021/06/27 02:28:25;;;;;;;11.20;7.55;;;;;;;21.96;62.78;100255.75;1781334;80;20911;-90
2021/06/27 02:30:51;;;;;;;8.75;6.62;;;;;;;21.86;63.31;100259.81;1776882;80;20848;-90
2021/06/27 02:33:18;;;;;;;11.25;7.22;;;;;;;21.88;63.08;100261.73;1776171;78;21035;-89
2021/06/27 02:35:43;;;;;;;9.50;6.57;;;;;;;21.93;62.81;100258.90;1777622;78;21324;-89
2021/06/27 02:38:09;;;;;;;9.50;6.55;;;;;;;21.96;62.78;100258.44;1776274;80;21200;-90
2021/06/27 02:40:35;;;;;;;9.63;7.08;;;;;;;21.96;62.89;100261.13;1781918;78;20899;-89
2021/06/27 02:43:01;;;;;;;8.18;6.28;;;;;;;21.74;63.56;100256.25;1778271;78;21121;-89
2021/06/27 02:45:27;;;;;;;12.10;6.72;;;;;;;21.81;63.40;100259.69;1779658;80;20856;-88
2021/06/27 02:47:52;;;;;;;10.90;6.80;;;;;;;21.59;63.72;100258.52;1770996;78;21215;-89
2021/06/27 02:50:18;;;;;;;9.85;6.50;;;;;;;21.64;63.95;100255.97;1768293;80;20881;-88
2021/06/27 02:52:44;;;;;;;10.60;6.50;;;;;;;21.74;63.62;100256.25;1763964;81;20920;-87
2021/06/27 02:55:11;;;;;;;7.55;6.10;;;;;;;21.81;63.03;100256.16;1771169;80;20962;-88
2021/06/27 02:57:38;;;;;;;9.40;6.37;;;;;;;21.88;62.93;100267.11;1759020;81;21052;-88
2021/06/27 03:00:06;;;;;;;9.23;6.25;;;;;;;21.99;62.28;100260.14;1755275;81;21104;-87
2021/06/27 03:02:32;;;;;;;10.32;5.92;;;;;;;21.91;62.21;100255.59;1755390;78;21005;-89
2021/06/27 03:04:58;;;;;;;11.85;6.55;;;;;;;21.64;62.53;100253.28;1818456;78;21034;-87
2021/06/27 03:07:24;;;;;;;10.28;6.80;;;;;;;21.55;62.60;100247.41;1819228;76;20870;-85
2021/06/27 03:09:50;;;;;;;8.88;6.62;;;;;;;21.60;62.56;100253.45;1815669;78;20864;-85
2021/06/27 03:12:16;;;;;;;10.95;7.08;;;;;;;21.44;63.02;100254.34;1823790;77;20979;-87
2021/06/27 03:14:41;;;;;;;10.05;6.42;;;;;;;21.42;63.30;100249.69;1768491;78;21489;-87
2021/06/27 03:17:07;;;;;;;9.53;6.70;;;;;;;21.46;63.24;100254.92;1762156;81;20920;-87
2021/06/27 03:19:33;;;;;;;8.18;6.33;;;;;;;21.55;63.07;100260.01;1750353;80;20865;-87
2021/06/27 03:21:58;;;;;;;9.70;6.50;;;;;;;21.75;62.52;100257.91;1752965;80;20987;-85
2021/06/27 03:24:24;;;;;;;8.75;6.15;;;;;;;21.94;62.07;100257.83;1757662;81;21312;-85
2021/06/27 03:26:50;;;;;;;9.48;6.22;;;;;;;21.88;61.85;100259.05;1773656;78;21393;-85
2021/06/27 03:29:16;;;;;;;9.78;6.22;;;;;;;21.87;61.52;100262.78;1779694;78;20899;-84
2021/06/27 03:31:41;;;;;;;9.28;6.10;;;;;;;21.96;61.61;100247.69;1767536;78;20939;-83
2021/06/27 03:34:07;;;;;;;10.60;6.03;;;;;;;21.94;61.67;100256.48;1766817;79;20916;-84
2021/06/27 03:36:33;;;;;;;7.80;6.30;;;;;;;22.09;60.93;100254.20;1749678;79;21806;-84
2021/06/27 03:39:14;;;;;;;8.85;6.00;;;;;;;21.99;60.70;100251.27;1755924;79;20973;-85
2021/06/27 03:41:45;;;;;;;9.28;5.97;;;;;;;22.11;60.56;100245.39;1771287;79;20951;-84
2021/06/27 03:44:09;;;;;;;10.35;6.08;;;;;;;22.22;60.16;100255.34;1758173;79;20960;-84
2021/06/27 03:46:35;;;;;;;8.68;5.97;;;;;;;22.27;59.95;100247.13;1776219;78;20900;-85
2021/06/27 03:49:01;;;;;;;10.32;6.25;;;;;;;22.35;60.04;100245.47;1763037;79;21113;-85
2021/06/27 03:51:26;;;;;;;10.10;6.50;;;;;;;22.28;61.10;100251.44;1810160;77;20868;-84
2021/06/27 03:53:52;;;;;;;10.63;6.95;;;;;;;22.25;61.17;100240.63;1811401;77;20994;-85
2021/06/27 03:56:18;;;;;;;12.03;6.87;;;;;;;22.20;61.44;100239.98;1778555;77;20943;-85
2021/06/27 03:58:46;;;;;;;9.85;6.58;;;;;;;22.05;62.17;100246.31;1778588;80;21369;-85
2021/06/27 04:01:11;;;;;;;9.58;6.80;;;;;;;21.94;62.51;100247.08;1778230;80;21363;-84
2021/06/27 04:03:37;;;;;;;8.85;7.00;;;;;;;22.11;62.32;100246.73;1778290;78;20828;-85
2021/06/27 04:06:04;;;;;;;11.10;6.87;;;;;;;22.15;62.02;100241.17;1776280;78;20982;-84
2021/06/27 04:08:31;;;;;;;10.10;6.60;;;;;;;22.24;62.09;100248.39;1780655;80;21050;-85
2021/06/27 04:10:58;;;;;;;10.98;6.78;;;;;;;22.35;61.80;100244.12;1776542;80;20962;-85
2021/06/27 04:13:27;;;;;;;8.45;6.15;;;;;;;22.34;61.81;100241.97;1778371;78;21965;-86
2021/06/27 04:15:53;;;;;;;10.88;6.20;;;;;;;22.36;61.56;100244.42;1777666;78;21026;-86
2021/06/27 04:18:20;;;;;;;10.35;6.72;;;;;;;22.36;61.60;100247.11;1764114;78;20985;-85
2021/06/27 04:20:45;;;;;;;10.23;6.70;;;;;;;22.36;61.63;100239.05;1758290;79;20971;-84
2021/06/27 04:23:11;;;;;;;12.15;6.78;;;;;;;22.41;61.49;100236.47;1769185;78;20871;-85
2021/06/27 04:25:37;;;;;;;13.00;6.75;;;;;;;22.48;60.88;100241.22;1760983;79;21110;-88
2021/06/27 04:28:04;;;;;;;9.40;6.25;;;;;;;22.57;60.41;100234.41;1750773;79;20910;-86
2021/06/27 04:30:30;;;;;;;;;;;;;;;22.73;59.84;100236.11;1771096;79;21013;-86
2021/06/27 04:32:56;;;;;;;9.45;6.42;;;;;;;22.74;59.44;100240.45;1772238;79;20681;-86
2021/06/27 04:35:21;;;;;;;10.25;6.72;;;;;;;22.81;60.00;100243.86;1782894;80;20939;-86
2021/06/27 04:37:47;;;;;;;11.18;6.60;;;;;;;22.97;59.51;100237.46;1807223;78;21151;-87
2021/06/27 04:40:13;;;;;;;10.20;6.87;;;;;;;22.95;59.65;100246.59;1824531;76;21392;-88
2021/06/27 04:42:39;;;;;;;9.90;6.08;;;;;;;22.69;59.01;100251.11;1811818;76;21153;-87
2021/06/27 04:45:06;;;;;;;13.32;6.90;;;;;;;22.74;59.11;100253.38;1777133;78;20926;-90
2021/06/27 04:47:34;;;;;;;9.55;6.85;;;;;;;22.79;58.44;100258.06;1776394;80;21057;-85
2021/06/27 04:50:00;;;;;;;10.75;6.37;;;;;;;22.85;57.83;100252.27;1774091;78;21165;-85
2021/06/27 04:52:26;;;;;;;11.48;7.08;;;;;;;22.88;58.04;100247.23;1773549;78;20901;-87
2021/06/27 04:54:51;;;;;;;9.90;6.90;;;;;;;22.97;58.06;100254.97;1770972;79;20961;-88
2021/06/27 04:57:17;;;;;;;9.28;6.17;;;;;;;22.98;58.09;100252.55;1767870;79;20868;-86
2021/06/27 04:59:43;;;;;;;12.43;7.00;;;;;;;22.90;58.07;100250.52;1765059;79;20965;-86
2021/06/27 05:02:09;;;;;;;12.88;6.58;;;;;;;23.02;57.96;100251.03;1772839;79;21089;-90
2021/06/27 05:04:35;;;;;;;9.28;5.87;;;;;;;23.11;57.72;100248.30;1775280;78;20903;-89
2021/06/27 05:07:00;;;;;;;10.38;7.72;;;;;;;23.14;57.36;100247.83;1776453;79;20872;-87
2021/06/27 05:09:26;;;;;;;12.23;9.00;;;;;;;23.19;57.50;100242.53;1767553;79;20938;-85
2021/06/27 05:11:52;;;;;;;9.55;6.80;;;;;;;23.27;57.52;100244.88;1780244;79;20859;-84
2021/06/27 05:14:17;;;;;;;9.80;6.20;;;;;;;23.35;57.32;100238.81;1776153;79;21008;-87
2021/06/27 05:16:43;;;;;;;10.60;6.72;;;;;;;23.28;57.53;100248.38;1774947;79;21155;-85
2021/06/27 05:19:09;;;;;;;12.88;7.03;;;;;;;23.19;57.78;100250.62;1769671;79;20962;-89
2021/06/27 05:21:35;;;;;;;12.13;6.58;;;;;;;23.20;57.92;100246.87;1769559;79;21021;-83
2021/06/27 05:24:00;;;;;;;10.03;6.45;;;;;;;23.40;57.61;100249.68;1780224;79;20861;-93
2021/06/27 05:26:26;;;;;;;11.05;6.17;;;;;;;23.50;57.36;100247.20;1771279;79;21058;-93
2021/06/27 05:28:52;;;;;;;13.03;6.42;;;;;;;23.64;57.24;100251.25;1769402;79;20881;-96
2021/06/27 05:31:18;;;;;;;10.70;6.60;;;;;;;23.75;57.09;100254.14;1777836;80;20900;-95
2021/06/27 05:33:44;;;;;;;9.68;6.03;;;;;;;23.74;56.83;100256.55;1777182;79;20869;-95
2021/06/27 05:36:10;;;;;;;7.75;5.65;;;;;;;23.87;56.72;100254.95;1784438;77;21109;-93
2021/06/27 05:38:36;;;;;;;7.92;6.08;;;;;;;23.79;56.74;100251.27;1756937;77;21075;-95
2021/06/27 05:41:01;;;;;;;9.98;6.20;;;;;;;23.82;56.69;100251.59;1766656;79;20937;-87
2021/06/27 05:43:30;;;;;;;8.63;6.15;;;;;;;23.83;56.48;100247.01;1777970;79;20876;-91
2021/06/27 05:45:56;;;;;;;10.25;6.10;;;;;;;23.91;56.55;100253.92;1770700;78;21099;-93
2021/06/27 05:48:22;;;;;;;7.83;5.85;;;;;;;23.96;56.21;100249.45;1758023;79;20995;-91
2021/06/27 05:50:48;;;;;;;9.38;5.80;;;;;;;24.17;56.08;100249.80;1761670;79;22016;-92
2021/06/27 05:53:14;;;;;;;12.78;5.20;;;;;;;24.21;55.69;100245.56;1751891;79;20960;-84
2021/06/27 05:55:40;;;;;;;8.10;5.57;;;;;;;24.33;55.85;100251.70;1772022;79;28242;-83
2021/06/27 05:58:05;;;;;;;10.58;5.03;;;;;;;24.41;55.32;100249.63;1764741;78;28200;-87
2021/06/27 06:00:31;;;;;;;7.40;5.47;;;;;;;24.51;55.17;100249.80;1763366;79;20884;-89
2021/06/27 06:02:57;;;;;;;8.08;5.22;;;;;;;24.49;54.65;100247.35;1776397;78;21068;-83
2021/06/27 06:05:23;;;;;;;11.80;5.85;;;;;;;24.51;54.71;100251.16;1778077;78;20975;-82
2021/06/27 06:07:49;;;;;;;9.18;5.45;;;;;;;24.50;54.90;100248.16;1772865;79;20998;-80
2021/06/27 06:10:15;;;;;;;8.33;5.37;;;;;;;24.65;54.44;100251.13;1765423;80;21843;-83
2021/06/27 06:12:41;;;;;;;7.90;5.08;;;;;;;24.76;54.33;100251.29;1770709;79;21100;-82
2021/06/27 06:15:07;;;;;;;9.20;5.10;;;;;;;24.66;54.07;100243.32;1774185;79;21980;-83
2021/06/27 06:17:33;;;;;;;9.60;4.83;;;;;;;24.73;53.64;100256.12;1773074;80;21027;-82
2021/06/27 06:19:59;;;;;;;9.25;5.15;;;;;;;24.86;53.62;100259.52;1764694;79;20902;-84
2021/06/27 06:22:25;;;;;;;10.28;5.45;;;;;;;24.89;53.29;100254.97;1810192;77;21567;-91
2021/06/27 06:24:50;;;;;;;13.13;5.42;;;;;;;24.89;53.21;100256.32;1821375;78;21122;-83
2021/06/27 06:27:16;;;;;;;8.10;5.10;;;;;;;25.03;52.91;100261.67;1807877;76;21038;-86
2021/06/27 06:29:42;;;;;;;8.00;5.05;;;;;;;25.05;52.69;100268.98;1812862;76;21107;-84
2021/06/27 06:32:08;;;;;;;8.55;4.50;;;;;;;25.07;52.14;100262.79;1815202;78;21082;-83
2021/06/27 06:34:34;;;;;;;5.97;4.30;;;;;;;25.19;52.24;100263.23;1811762;78;21042;-87
2021/06/27 06:36:59;;;;;;;7.97;5.00;;;;;;;25.09;51.60;100259.33;1795488;78;21083;-83
2021/06/27 06:39:27;;;;;;;7.65;5.00;;;;;;;24.71;51.58;100246.63;1765392;79;21215;-93
2021/06/27 06:41:53;;;;;;;8.93;4.67;;;;;;;24.68;51.80;100251.98;1760985;77;21055;-84
2021/06/27 06:44:19;;;;;;;8.68;5.35;;;;;;;24.84;52.30;100253.55;1755052;81;20983;-84
2021/06/27 06:46:45;;;;;;;8.53;5.30;;;;;;;24.61;52.67;100256.76;1778346;78;21617;-85
2021/06/27 06:49:11;;;;;;;7.20;4.92;;;;;;;24.71;52.63;100258.23;1782157;80;20894;-82
2021/06/27 06:51:38;;;;;;;9.75;5.55;;;;;;;25.03;52.11;100251.38;1783825;80;21157;-87
2021/06/27 06:54:04;;;;;;;7.12;4.50;;;;;;;24.98;51.91;100253.48;1782931;80;21770;-82
2021/06/27 06:56:30;;;;;;;7.20;4.78;;;;;;;25.13;52.30;100254.23;1783033;78;21086;-85
2021/06/27 06:58:56;;;;;;;7.80;4.92;;;;;;;25.13;51.75;100252.06;1755767;81;20876;-84
2021/06/27 07:01:22;;;;;;;6.95;4.90;;;;;;;24.67;52.26;100249.53;1761178;81;20995;-88
2021/06/27 07:03:47;;;;;;;8.53;5.12;;;;;;;24.53;52.54;100256.61;1767254;81;21247;-89
2021/06/27 07:06:13;;;;;;;9.28;5.67;;;;;;;24.50;53.06;100255.75;1760176;80;20885;-87
2021/06/27 07:08:39;;;;;;;7.30;4.80;;;;;;;24.42;53.35;100256.68;1752392;81;20971;-88
2021/06/27 07:11:05;;;;;;;8.38;4.83;;;;;;;24.71;52.72;100260.94;1753776;79;20910;-91
2021/06/27 07:13:31;;;;;;;8.30;4.80;;;;;;;24.70;52.69;100259.33;1748413;79;21155;-81
2021/06/27 07:15:57;;;;;;;8.33;4.87;;;;;;;24.77;52.20;100244.83;1761371;79;21081;-80
2021/06/27 07:18:22;;;;;;;13.00;6.55;;;;;;;24.77;52.20;100244.83;1752569;79;21756;-81
2021/06/27 07:20:51;;;;;;;8.73;5.22;;;;;;;24.68;52.51;100260.08;1767286;79;20888;-85
2021/06/27 07:23:17;;;;;;;8.45;5.40;;;;;;;24.96;51.65;100261.03;1762478;79;21084;-83
2021/06/27 07:25:43;;;;;;;10.57;5.47;;;;;;;24.93;51.68;100256.66;1760816;80;21014;-85
2021/06/27 07:28:09;;;;;;;8.10;5.28;;;;;;;25.03;51.46;100259.48;1779920;78;21087;-85
2021/06/27 07:30:35;;;;;;;7.28;5.12;;;;;;;25.13;51.35;100265.58;1774064;80;20863;-82
2021/06/27 07:33:00;;;;;;;8.33;5.45;;;;;;;25.21;51.52;100271.35;1775535;78;20899;-79
2021/06/27 07:35:26;;;;;;;6.95;5.25;;;;;;;24.88;52.17;100269.02;1773212;80;20887;-77
2021/06/27 07:37:52;;;;;;;6.45;5.12;;;;;;;24.83;52.39;100273.55;1794392;77;20962;-81
2021/06/27 07:40:19;;;;;;;9.00;5.40;;;;;;;25.15;51.62;100267.48;1802519;77;21087;-81
2021/06/27 07:42:45;;;;;;;11.08;5.78;;;;;;;24.94;52.26;100278.03;1811664;77;20950;-80
2021/06/27 07:45:12;;;;;;;9.23;6.00;;;;;;;24.59;52.23;100275.06;1772679;77;20908;-79
2021/06/27 07:47:38;;;;;;;9.75;5.72;;;;;;;24.68;52.49;100272.23;1749085;79;21610;-82
2021/06/27 07:50:05;;;;;;;11.20;7.00;;;;;;;24.99;51.82;100267.28;1755716;79;27278;-83
2021/06/27 07:52:31;;;;;;;9.58;5.67;;;;;;;25.07;51.54;100262.79;1772512;79;21348;-80
2021/06/27 07:54:56;;;;;;;9.18;5.92;;;;;;;25.05;51.38;100266.83;1751200;79;20889;-80
2021/06/27 07:57:22;;;;;;;8.00;5.20;;;;;;;24.99;51.07;100269.98;1757857;80;20892;-83
2021/06/27 07:59:52;;;;;;;10.03;5.10;;;;;;;25.05;51.24;100264.94;1785257;78;20918;-86
2021/06/27 08:02:15;;;;;;;8.75;5.00;;;;;;;25.15;50.23;100263.44;1788242;77;21596;-81
2021/06/27 08:04:41;;;;;;;9.78;5.30;;;;;;;25.23;49.89;100258.94;1786729;77;20941;-81
2021/06/27 08:07:07;;;;;;;7.10;5.08;;;;;;;24.87;50.39;100267.37;1770770;78;20979;-82
2021/06/27 08:09:33;;;;;;;7.50;5.10;;;;;;;24.99;49.93;100257.83;1747364;79;20930;-81
2021/06/27 08:11:58;;;;;;;8.78;5.53;;;;;;;25.15;49.32;100236.41;1754346;79;20891;-83
2021/06/27 08:14:24;;;;;;;7.40;5.10;;;;;;;25.15;49.32;100236.41;1775280;79;20967;-83
2021/06/27 08:16:50;;;;;;;6.20;4.70;;;;;;;25.25;49.68;100259.53;1790701;78;21069;-84
2021/06/27 08:19:16;;;;;;;6.00;4.92;;;;;;;25.38;47.80;100264.56;1786592;79;20951;-83
2021/06/27 08:21:41;;;;;;;9.20;5.37;;;;;;;24.94;47.75;100265.03;1791932;79;20935;-82
2021/06/27 08:24:08;;;;;;;6.33;5.15;;;;;;;25.47;46.88;100249.27;1770212;79;20899;-90
2021/06/27 08:26:33;;;;;;;7.00;4.58;;;;;;;25.47;46.88;100249.27;1773942;79;21036;-89
2021/06/27 08:28:59;;;;;;;8.33;4.08;;;;;;;25.37;45.26;100257.55;1780268;79;21060;-84
2021/06/27 08:31:26;;;;;;;5.20;3.77;;;;;;;25.59;45.46;100248.58;1787565;79;20840;-94
2021/06/27 08:33:52;;;;;;;5.22;4.05;;;;;;;25.55;44.43;100250.17;1777440;79;21595;-90
2021/06/27 08:36:18;;;;;;;7.17;4.40;;;;;;;25.37;44.10;100253.49;1793905;78;21537;-94
2021/06/27 08:38:43;;;;;;;6.50;3.77;;;;;;;25.62;44.16;100250.77;1789153;79;21088;-85
2021/06/27 08:41:09;;;;;;;5.33;3.65;;;;;;;25.61;43.71;100255.92;1785969;79;21703;-86
2021/06/27 08:43:35;;;;;;;5.90;3.65;;;;;;;25.60;42.15;100250.22;1791646;79;21046;-87
2021/06/27 08:46:07;;;;;;;5.67;3.80;;;;;;;25.68;42.57;100248.41;1783144;79;21717;-86
2021/06/27 08:48:30;;;;;;;7.55;3.70;;;;;;;25.67;43.09;100248.14;1776373;79;21014;-82
2021/06/27 08:50:56;;;;;;;4.75;3.20;;;;;;;25.63;43.01;100241.59;1787354;79;21006;-83
2021/06/27 08:53:21;;;;;;;5.63;3.30;;;;;;;25.66;42.07;100248.39;1790162;79;21643;-82
2021/06/27 08:56:04;;;;;;;6.55;3.72;;;;;;;25.68;40.46;100241.64;1785280;79;20979;-83
2021/06/27 08:58:15;;;;;;;5.95;3.12;;;;;;;25.41;41.37;100262.71;1783570;78;21073;-83
2021/06/27 09:00:40;;;;;;;4.05;2.90;;;;;;;25.40;41.22;100270.56;1774975;79;21299;-83
2021/06/27 09:03:10;;;;;;;5.30;3.08;;;;;;;25.98;40.23;100246.59;1769410;79;21003;-83
2021/06/27 09:05:38;;;;;;;4.58;3.00;;;;;;;25.98;40.23;100246.59;1742501;79;21259;-82
2021/06/27 09:08:15;;;;;;;4.97;2.90;;;;;;;25.63;39.98;100277.56;1795247;79;21014;-83
2021/06/27 09:10:40;;;;;;;4.35;2.95;;;;;;;25.64;40.46;100248.65;1782025;79;21042;-83
2021/06/27 09:13:06;;;;;;;5.55;3.67;;;;;;;25.75;40.85;100255.80;1799913;78;21303;-83
2021/06/27 09:15:45;;;;;;;5.40;3.50;;;;;;;25.59;40.46;100268.86;1802438;78;20938;-84
2021/06/27 09:18:20;;;;;;;5.55;3.42;;;;;;;25.61;41.16;100247.80;1792311;78;21106;-84
2021/06/27 09:20:48;;;;;;;6.33;3.65;;;;;;;25.61;41.54;100246.45;1787950;79;20998;-83
2021/06/27 09:23:16;;;;;;;6.28;3.70;;;;;;;25.57;42.16;100238.55;1793878;79;21159;-83
2021/06/27 09:25:43;;;;;;;4.40;3.20;;;;;;;25.65;42.07;100252.97;1765417;79;21010;-84
2021/06/27 09:28:14;;;;;;;;;;;;;;;25.43;41.79;100253.83;1799043;79;21050;-84
2021/06/27 09:30:54;;;;;;;6.40;3.62;;;;;;;25.60;41.00;100240.75;1793837;79;21270;-84
2021/06/27 09:33:25;;;;;;;5.50;3.37;;;;;;;25.62;42.25;100234.03;1801639;79;20967;-84
2021/06/27 09:36:05;;;;;;;6.45;3.40;;;;;;;25.66;43.11;100231.62;1774456;79;21361;-83
2021/06/27 09:38:41;;;;;;;4.58;3.40;;;;;;;25.80;42.66;100231.48;1790603;78;21011;-82
2021/06/27 09:41:18;;;;;;;6.90;3.60;;;;;;;25.68;41.86;100241.64;1796386;79;21514;-83
2021/06/27 09:43:57;;;;;;;4.87;3.00;;;;;;;25.56;42.03;100239.64;1795227;79;21503;-84
2021/06/27 09:46:46;;;;;;;5.22;3.08;;;;;;;25.83;40.08;100227.47;1797160;79;21015;-83
2021/06/27 09:49:15;;;;;;;3.60;2.60;;;;;;;25.63;40.10;100236.99;1801406;78;21224;-84
2021/06/27 09:52:05;;;;;;;3.52;2.67;;;;;;;25.47;39.52;100241.97;1784661;77;21035;-84
2021/06/27 09:54:49;;;;;;;5.83;2.70;;;;;;;25.56;39.49;100243.70;1798701;78;21047;-85
2021/06/27 09:57:21;;;;;;;4.70;2.60;;;;;;;25.53;39.66;100237.45;1776064;79;21085;-83
2021/06/27 09:59:47;;;;;;;7.45;2.60;;;;;;;25.78;39.17;100232.29;1795443;78;21007;-83
2021/06/27 10:02:13;;;;;;;5.78;2.50;;;;;;;25.76;38.85;100243.91;1785710;79;21395;-83
2021/06/27 10:04:39;;;;;;;5.97;2.80;;;;;;;26.02;38.32;100241.47;1799614;79;21047;-83
2021/06/27 10:07:07;;;;;;;3.95;2.60;;;;;;;25.89;39.36;100252.69;1802350;78;21110;-85
2021/06/27 10:09:40;;;;;;;4.00;2.45;;;;;;;25.77;38.92;100242.82;1789584;78;21149;-82
2021/06/27 10:12:10;;;;;;;3.42;2.30;;;;;;;25.63;38.19;100255.12;1795272;79;21283;-83
2021/06/27 10:14:51;;;;;;;3.05;2.30;;;;;;;25.92;38.49;100223.77;1796480;79;21142;-84
2021/06/27 10:17:18;;;;;;;4.28;2.40;;;;;;;25.81;37.98;100237.73;1799336;78;21537;-83
2021/06/27 10:19:44;;;;;;;3.22;2.20;;;;;;;25.98;38.42;100234.95;1797002;79;21084;-83
2021/06/27 10:22:10;;;;;;;3.72;2.30;;;;;;;25.68;37.92;100228.12;1799644;78;21083;-84
2021/06/27 10:27:17;;;;;;;5.78;3.02;;;;;;;25.83;38.47;100227.47;1798757;78;21043;-82
2021/06/27 10:29:44;;;;;;;5.10;2.40;;;;;;;25.80;38.94;100235.55;1798824;78;21122;-83
2021/06/27 10:32:11;;;;;;;5.17;2.40;;;;;;;25.97;37.80;100263.87;1800288;78;21944;-83
2021/06/27 10:34:37;;;;;;;2.00;1.80;;;;;;;26.06;36.65;100247.20;1784269;79;21105;-83
2021/06/27 10:37:28;;;;;;;3.25;2.20;;;;;;;25.89;36.98;100237.81;1799146;78;21153;-83
2021/06/27 10:40:02;;;;;;;3.10;2.30;;;;;;;25.93;37.19;100237.56;1790444;79;21946;-83
2021/06/27 10:42:59;;;;;;;4.53;2.40;;;;;;;26.18;37.53;100233.48;1795417;78;21692;-84
2021/06/27 10:45:52;;;;;;;4.70;2.50;;;;;;;26.18;37.66;100215.37;1791761;78;21592;-84
2021/06/27 10:48:36;;;;;;;4.37;2.33;;;;;;;26.10;38.10;100213.95;1796718;79;21304;-83
2021/06/27 10:51:05;;;;;;;3.30;2.37;;;;;;;25.97;38.38;100211.63;1797227;79;21034;-82
2021/06/27 10:53:51;;;;;;;4.80;2.52;;;;;;;26.22;38.59;100209.70;1791155;78;21027;-82
2021/06/27 10:56:51;;;;;;;5.37;2.40;;;;;;;26.42;38.36;100209.58;1797838;79;21090;-83
2021/06/27 10:59:47;;;;;;;5.22;2.30;;;;;;;26.07;38.05;100244.23;1797729;78;21834;-82
2021/06/27 11:02:17;;;;;;;;;;;;;;;26.07;37.61;100229.36;1791702;79;21700;-82
2021/06/27 11:04:41;;;;;;;4.97;2.33;;;;;;;26.21;37.34;100208.61;1798136;78;20186;-81
2021/06/27 11:07:07;;;;;;;5.62;2.55;;;;;;;26.34;37.34;100219.00;1794085;78;20896;-82
2021/06/27 11:09:32;;;;;;;3.17;2.00;;;;;;;26.43;36.58;100228.28;1798629;78;20959;-83
2021/06/27 11:11:58;;;;;;;3.75;2.30;;;;;;;26.65;36.43;100211.09;1767514;79;20893;-84
2021/06/27 11:14:26;;;;;;;3.12;2.20;;;;;;;26.67;36.33;100219.80;1773178;79;21120;-82
2021/06/27 11:17:06;;;;;;;4.17;2.17;;;;;;;26.27;36.88;100224.65;1761550;79;21541;-83
2021/06/27 11:19:43;;;;;;;2.92;2.20;;;;;;;26.37;36.92;100229.31;1767151;79;21589;-83
2021/06/27 11:22:21;;;;;;;3.25;2.27;;;;;;;26.54;36.98;100228.33;1760171;79;21499;-82
2021/06/27 11:24:54;;;;;;;2.87;2.05;;;;;;;26.29;37.56;100218.97;1770797;79;21039;-83
2021/06/27 11:27:37;;;;;;;2.85;2.08;;;;;;;26.25;37.67;100231.39;1765043;79;21162;-84
2021/06/27 11:30:23;;;;;;;2.90;2.10;;;;;;;26.16;37.36;100231.03;1759004;79;21689;-83